createdAt,value
2018-09-27T00:01:57.796Z,66.90
2018-09-27T00:04:26.379Z,67.40
2018-09-27T00:06:54.918Z,67.80
2018-09-27T00:09:23.447Z,68.10
2018-09-27T00:11:52.654Z,68.40
2018-09-27T00:14:21.235Z,68.60
2018-09-27T00:16:49.881Z,68.90
2018-09-27T00:19:18.496Z,69.20
2018-09-27T00:21:46.970Z,69.50
2018-09-27T00:24:15.437Z,69.70
2018-09-27T00:26:43.966Z,69.90
2018-09-27T00:29:12.497Z,70.10
2018-09-27T00:31:41.264Z,70.50
2018-09-27T00:34:09.778Z,70.60
2018-09-27T00:36:38.350Z,70.90
2018-09-27T00:39:08.909Z,71.10
2018-09-27T00:41:37.492Z,71.30
2018-09-27T00:44:06.035Z,71.50
2018-09-27T00:46:34.618Z,71.60
2018-09-27T00:49:03.125Z,71.70
2018-09-27T00:51:31.600Z,71.80
2018-09-27T00:54:00.896Z,72.00
2018-09-27T00:56:29.586Z,72.10
2018-09-27T00:58:58.211Z,72.20
2018-09-27T01:01:26.781Z,72.60
2018-09-27T01:03:55.425Z,72.90
2018-09-27T01:06:24.025Z,73.40
2018-09-27T01:08:53.362Z,73.40
2018-09-27T01:11:22.080Z,73.50
2018-09-27T01:13:50.734Z,73.60
2018-09-27T01:16:19.963Z,73.90
2018-09-27T01:18:48.524Z,74.20
2018-09-27T01:21:17.237Z,74.30
2018-09-27T01:23:45.815Z,74.60
2018-09-27T01:26:14.431Z,74.80
2018-09-27T01:28:43.008Z,75.10
2018-09-27T01:31:11.541Z,75.40
2018-09-27T01:33:40.108Z,75.60
2018-09-27T01:36:08.697Z,75.80
2018-09-27T01:38:38.122Z,76.00
2018-09-27T01:41:06.977Z,76.10
2018-09-27T01:43:35.576Z,76.80
2018-09-27T01:46:04.461Z,76.50
2018-09-27T01:48:33.034Z,76.70
2018-09-27T01:51:02.194Z,76.80
2018-09-27T01:53:31.360Z,77.00
2018-09-27T01:56:00.744Z,77.20
2018-09-27T01:58:29.335Z,77.50
2018-09-27T02:00:57.931Z,77.70
2018-09-27T02:03:26.515Z,77.90
2018-09-27T02:05:55.112Z,77.90
2018-09-27T02:08:23.758Z,78.10
2018-09-27T02:10:52.305Z,78.30
2018-09-27T02:13:21.048Z,78.50
2018-09-27T02:15:49.800Z,78.60
2018-09-27T02:18:18.429Z,78.70
2018-09-27T02:20:46.901Z,78.70
2018-09-27T02:23:15.450Z,78.80
2018-09-27T02:25:43.994Z,79.00
2018-09-27T02:28:12.625Z,79.10
2018-09-27T02:30:41.223Z,79.30
2018-09-27T02:33:09.790Z,79.60
2018-09-27T02:35:38.468Z,79.90
2018-09-27T02:38:07.056Z,79.90
2018-09-27T02:40:35.657Z,80.00
2018-09-27T02:43:04.245Z,80.20
2018-09-27T02:45:32.791Z,80.30
2018-09-27T02:48:01.423Z,80.30
2018-09-27T02:50:29.967Z,80.60
2018-09-27T02:52:58.532Z,80.70
2018-09-27T02:55:27.111Z,80.90
2018-09-27T02:57:55.696Z,81.10
2018-09-27T03:00:24.300Z,81.20
2018-09-27T03:02:52.881Z,81.30
2018-09-27T03:05:21.547Z,81.60
2018-09-27T03:07:50.094Z,81.70
2018-09-27T03:10:18.640Z,81.80
2018-09-27T03:12:48.038Z,81.90
2018-09-27T03:15:16.625Z,82.10
2018-09-27T03:17:45.315Z,82.40
2018-09-27T03:20:13.970Z,82.60
2018-09-27T03:22:42.716Z,82.90
2018-09-27T03:25:11.251Z,82.90
2018-09-27T03:27:39.916Z,83.00
2018-09-27T03:30:08.514Z,83.00
2018-09-27T03:32:37.092Z,83.10
2018-09-27T03:35:05.684Z,83.20
2018-09-27T03:37:34.182Z,83.30
2018-09-27T03:40:02.833Z,83.50
2018-09-27T03:42:31.812Z,83.60
2018-09-27T03:45:00.400Z,83.70
2018-09-27T03:47:28.914Z,83.80
2018-09-27T03:49:58.259Z,83.90
2018-09-27T03:52:26.978Z,84.10
2018-09-27T03:54:55.629Z,84.30
2018-09-27T03:57:24.257Z,84.50
2018-09-27T03:59:52.784Z,84.60
2018-09-27T04:02:21.402Z,84.70
2018-09-27T04:04:49.949Z,84.80
2018-09-27T04:07:18.464Z,84.90
2018-09-27T04:09:47.098Z,85.10
2018-09-27T04:12:15.665Z,85.20
2018-09-27T04:14:44.293Z,85.30
2018-09-27T04:17:13.157Z,85.40
2018-09-27T04:19:41.922Z,85.60
2018-09-27T04:22:10.585Z,86.10
2018-09-27T04:24:39.289Z,85.70
2018-09-27T04:27:07.824Z,85.80
2018-09-27T04:29:36.454Z,86.00
2018-09-27T04:32:05.501Z,86.00
2018-09-27T04:34:34.195Z,86.10
2018-09-27T04:37:03.688Z,86.10
2018-09-27T04:39:32.393Z,86.30
2018-09-27T04:42:01.145Z,86.40
2018-09-27T04:44:29.875Z,86.50
2018-09-27T04:46:58.506Z,86.60
2018-09-27T04:49:27.242Z,86.70
2018-09-27T04:51:55.912Z,87.10
2018-09-27T04:54:24.556Z,87.20
2018-09-27T04:56:53.084Z,87.20
2018-09-27T04:59:21.640Z,87.20
2018-09-27T05:01:50.216Z,87.10
2018-09-27T05:04:18.778Z,87.10
2018-09-27T05:06:47.377Z,87.10
2018-09-27T05:09:16.006Z,87.20
2018-09-27T05:11:44.598Z,87.30
2018-09-27T05:14:13.220Z,87.40
2018-09-27T05:16:42.605Z,87.40
2018-09-27T05:19:11.360Z,87.50
2018-09-27T05:21:40.066Z,87.50
2018-09-27T05:24:08.669Z,87.50
2018-09-27T05:26:37.203Z,87.60
2018-09-27T05:29:05.736Z,87.70
2018-09-27T05:31:34.255Z,87.80
2018-09-27T05:34:02.809Z,87.80
2018-09-27T05:36:31.365Z,87.80
2018-09-27T05:38:59.932Z,88.00
2018-09-27T05:41:28.547Z,88.10
2018-09-27T05:43:57.148Z,88.10
2018-09-27T05:46:25.798Z,88.20
2018-09-27T05:48:54.358Z,88.30
2018-09-27T05:51:22.942Z,88.40
2018-09-27T05:53:51.530Z,88.50
2018-09-27T05:56:20.045Z,88.70
2018-09-27T05:58:48.565Z,88.70
2018-09-27T06:01:17.132Z,88.70
2018-09-27T06:03:45.736Z,88.80
2018-09-27T06:06:14.384Z,88.90
2018-09-27T06:08:42.977Z,89.00
2018-09-27T06:11:11.632Z,89.10
2018-09-27T06:13:40.240Z,89.20
2018-09-27T06:16:08.815Z,89.30
2018-09-27T06:18:37.373Z,89.40
2018-09-27T06:21:06.359Z,89.60
2018-09-27T06:23:34.896Z,89.70
2018-09-27T06:26:03.484Z,89.80
2018-09-27T06:28:32.062Z,89.90
2018-09-27T06:31:00.585Z,90.00
2018-09-27T06:33:29.235Z,90.00
2018-09-27T06:35:57.879Z,90.10
2018-09-27T06:38:26.509Z,90.10
2018-09-27T06:40:55.598Z,90.20
2018-09-27T06:43:24.182Z,90.20
2018-09-27T06:45:52.726Z,90.30
2018-09-27T06:48:21.310Z,90.40
2018-09-27T06:50:49.967Z,90.50
2018-09-27T06:53:18.534Z,90.60
2018-09-27T06:55:47.255Z,90.70
2018-09-27T06:58:15.847Z,90.80
2018-09-27T07:00:44.508Z,91.20
2018-09-27T07:03:13.812Z,92.60
2018-09-27T07:05:42.431Z,95.70
2018-09-27T07:08:11.111Z,97.60
2018-09-27T07:10:39.833Z,95.90
2018-09-27T07:13:08.568Z,94.30
2018-09-27T07:15:37.340Z,93.70
2018-09-27T07:18:06.101Z,96.30
2018-09-27T07:20:41.512Z,97.60
2018-09-27T07:23:10.186Z,96.90
2018-09-27T07:25:38.742Z,93.50
2018-09-27T07:28:07.408Z,92.20
2018-09-27T07:30:36.761Z,91.60
2018-09-27T07:33:05.285Z,91.80
2018-09-27T07:35:34.006Z,91.90
2018-09-27T07:38:02.652Z,91.70
2018-09-27T07:40:31.276Z,91.70
2018-09-27T07:42:59.953Z,91.80
2018-09-27T07:45:28.527Z,93.00
2018-09-27T07:47:57.109Z,94.20
2018-09-27T07:50:25.773Z,96.10
2018-09-27T07:52:54.577Z,95.20
2018-09-27T07:55:23.232Z,92.90
2018-09-27T07:57:51.904Z,91.50
2018-09-27T08:00:20.514Z,91.30
2018-09-27T08:02:49.121Z,91.90
2018-09-27T08:05:17.862Z,92.30
2018-09-27T08:07:47.653Z,91.70
2018-09-27T08:10:16.439Z,91.30
2018-09-27T08:12:45.132Z,91.30
2018-09-27T08:15:14.505Z,91.40
2018-09-27T08:17:43.317Z,91.60
2018-09-27T08:20:12.697Z,92.00
2018-09-27T08:22:41.239Z,92.20
2018-09-27T08:25:09.873Z,92.10
2018-09-27T08:27:38.507Z,92.20
2018-09-27T08:30:07.153Z,92.30
2018-09-27T08:32:35.987Z,92.20
2018-09-27T08:35:04.870Z,92.30
2018-09-27T08:37:33.419Z,92.70
2018-09-27T08:40:02.030Z,92.60
2018-09-27T08:42:30.849Z,92.50
2018-09-27T08:44:59.538Z,92.60
2018-09-27T08:47:27.951Z,92.70
2018-09-27T08:49:56.580Z,93.10
2018-09-27T08:52:25.214Z,92.90
2018-09-27T08:54:53.820Z,93.10
2018-09-27T08:57:22.847Z,92.90
2018-09-27T08:59:54.513Z,93.20
2018-09-27T09:02:23.176Z,93.30
2018-09-27T09:04:51.786Z,93.50
2018-09-27T09:07:20.490Z,93.90
2018-09-27T09:09:49.072Z,93.10
2018-09-27T09:12:17.819Z,92.90
2018-09-27T09:14:46.781Z,92.90
2018-09-27T09:17:15.524Z,92.90
2018-09-27T09:19:44.798Z,92.80
2018-09-27T09:22:13.590Z,93.10
2018-09-27T09:24:42.429Z,93.50
2018-09-27T09:27:11.180Z,93.10
2018-09-27T09:29:40.234Z,92.90
2018-09-27T09:32:09.418Z,93.20
2018-09-27T09:34:38.189Z,93.60
2018-09-27T09:37:06.830Z,93.50
2018-09-27T09:39:35.480Z,95.30
2018-09-27T09:42:05.170Z,95.00
2018-09-27T09:44:33.925Z,93.60
2018-09-27T09:47:02.742Z,93.20
2018-09-27T09:49:31.413Z,93.10
2018-09-27T09:52:00.143Z,93.00
2018-09-27T09:54:28.847Z,93.60
2018-09-27T09:56:57.417Z,95.30
2018-09-27T09:59:25.997Z,99.90
2018-09-27T10:01:54.631Z,99.90
2018-09-27T10:04:23.279Z,99.90
2018-09-27T10:06:51.922Z,99.90
2018-09-27T10:09:20.495Z,99.90
2018-09-27T10:11:49.137Z,98.40
2018-09-27T10:14:17.773Z,98.30
2018-09-27T10:16:46.508Z,96.40
2018-09-27T10:19:15.140Z,94.30
2018-09-27T10:21:43.850Z,91.30
2018-09-27T10:24:12.344Z,87.00
2018-09-27T10:26:41.017Z,74.00
2018-09-27T10:29:10.408Z,78.40
2018-09-27T10:31:39.160Z,70.10
2018-09-27T10:34:07.912Z,62.70
2018-09-27T10:36:36.576Z,61.20
2018-09-27T10:39:07.744Z,61.90
2018-09-27T10:41:37.081Z,62.70
2018-09-27T10:44:06.474Z,61.20
2018-09-27T10:46:35.325Z,60.70
2018-09-27T10:49:03.959Z,61.20
2018-09-27T10:51:32.847Z,61.40
2018-09-27T10:54:01.650Z,61.80
2018-09-27T10:56:30.198Z,64.20
2018-09-27T10:58:58.817Z,66.20
2018-09-27T11:01:27.519Z,64.00
2018-09-27T11:03:56.239Z,64.20
2018-09-27T11:06:25.019Z,67.60
2018-09-27T11:08:53.677Z,65.20
2018-09-27T11:11:22.359Z,63.50
2018-09-27T11:13:50.947Z,63.50
2018-09-27T11:16:19.652Z,63.60
2018-09-27T11:18:48.301Z,64.30
2018-09-27T11:21:16.851Z,64.10
2018-09-27T11:23:45.465Z,65.60
2018-09-27T11:26:14.036Z,66.80
2018-09-27T11:30:50.025Z,67.00
2018-09-27T11:33:18.603Z,67.80
2018-09-27T11:35:47.206Z,78.70
2018-09-27T11:38:15.740Z,73.50
2018-09-27T11:40:44.336Z,70.20
2018-09-27T11:43:12.858Z,66.20
2018-09-27T11:45:41.499Z,66.00
2018-09-27T11:48:10.178Z,66.40
2018-09-27T11:50:38.897Z,65.50
2018-09-27T11:53:08.504Z,66.60
2018-09-27T11:55:37.232Z,75.80
2018-09-27T11:58:06.743Z,77.50
2018-09-27T12:00:35.577Z,85.00
2018-09-27T12:03:04.236Z,82.50
2018-09-27T12:05:32.917Z,80.40
2018-09-27T12:08:01.590Z,75.60
2018-09-27T12:10:30.373Z,72.70
2018-09-27T12:12:59.756Z,71.20
2018-09-27T12:15:29.470Z,69.10
2018-09-27T12:17:58.053Z,65.60
2018-09-27T12:20:27.634Z,62.50
2018-09-27T12:22:56.262Z,59.70
2018-09-27T12:25:24.885Z,57.40
2018-09-27T12:27:54.131Z,57.10
2018-09-27T12:30:22.855Z,52.90
2018-09-27T12:32:51.474Z,53.10
2018-09-27T12:35:20.073Z,49.50
2018-09-27T12:37:48.713Z,49.60
2018-09-27T12:40:17.397Z,49.20
2018-09-27T12:42:46.124Z,47.70
2018-09-27T12:45:14.762Z,46.40
2018-09-27T12:47:43.177Z,46.00
2018-09-27T12:50:11.757Z,45.20
2018-09-27T12:52:40.373Z,42.70
2018-09-27T12:55:08.892Z,42.00
2018-09-27T12:57:37.444Z,40.50
2018-09-27T13:00:06.034Z,40.70
2018-09-27T13:02:34.643Z,41.00
2018-09-27T13:05:03.227Z,40.20
2018-09-27T13:07:31.758Z,39.90
2018-09-27T13:10:00.514Z,39.60
2018-09-27T13:12:28.974Z,38.70
2018-09-27T13:14:57.574Z,38.30
2018-09-27T13:17:26.116Z,37.90
2018-09-27T13:19:54.720Z,36.30
2018-09-27T13:22:23.335Z,36.50
2018-09-27T13:24:52.734Z,36.40
2018-09-27T13:27:21.318Z,35.50
2018-09-27T13:29:49.894Z,35.30
2018-09-27T13:32:18.491Z,35.80
2018-09-27T13:34:47.092Z,35.00
2018-09-27T13:37:15.745Z,34.50
2018-09-27T13:39:44.464Z,34.10
2018-09-27T13:42:13.045Z,34.00
2018-09-27T13:44:41.682Z,34.10
2018-09-27T13:47:10.412Z,33.40
2018-09-27T13:49:39.041Z,33.50
2018-09-27T13:52:07.877Z,33.90
2018-09-27T13:54:36.748Z,32.70
2018-09-27T13:57:05.435Z,33.20
2018-09-27T13:59:33.971Z,33.20
2018-09-27T14:02:02.598Z,32.90
2018-09-27T14:04:31.207Z,32.50
2018-09-27T14:06:59.807Z,32.50
2018-09-27T14:09:28.964Z,32.80
2018-09-27T14:11:57.583Z,33.00
2018-09-27T14:14:26.164Z,32.60
2018-09-27T14:16:54.775Z,32.60
2018-09-27T14:19:23.355Z,32.00
2018-09-27T14:21:52.045Z,31.70
2018-09-27T14:24:20.699Z,31.70
2018-09-27T14:26:49.268Z,31.60
2018-09-27T14:29:17.862Z,31.90
2018-09-27T14:31:46.458Z,32.00
2018-09-27T14:34:15.359Z,31.50
2018-09-27T14:36:44.361Z,31.80
2018-09-27T14:39:13.022Z,32.30
2018-09-27T14:41:41.629Z,32.60
2018-09-27T14:44:10.342Z,32.00
2018-09-27T14:46:39.287Z,32.00
2018-09-27T14:49:07.930Z,31.30
2018-09-27T14:51:36.581Z,31.90
2018-09-27T14:54:05.333Z,32.70
2018-09-27T14:56:34.193Z,32.60
2018-09-27T14:59:03.226Z,33.00
2018-09-27T15:01:31.872Z,33.40
2018-09-27T15:04:00.930Z,32.70
2018-09-27T15:06:29.933Z,33.60
2018-09-27T15:08:58.533Z,33.70
2018-09-27T15:11:27.107Z,33.40
2018-09-27T15:13:55.791Z,33.50
2018-09-27T15:16:24.519Z,33.60
2018-09-27T15:18:53.106Z,33.20
2018-09-27T15:21:21.782Z,33.10
2018-09-27T15:23:50.445Z,33.60
2018-09-27T15:26:19.263Z,33.50
2018-09-27T15:28:48.375Z,33.60
2018-09-27T15:31:17.836Z,33.80
2018-09-27T15:33:46.816Z,33.40
2018-09-27T15:36:16.300Z,33.40
2018-09-27T15:38:44.971Z,33.50
2018-09-27T15:41:13.673Z,34.60
2018-09-27T15:43:42.399Z,34.20
2018-09-27T15:46:11.262Z,34.10
2018-09-27T15:48:40.404Z,34.40
2018-09-27T15:51:09.070Z,34.50
2018-09-27T15:53:37.719Z,34.40
2018-09-27T15:56:07.074Z,34.30
2018-09-27T15:58:35.845Z,34.10
2018-09-27T16:01:04.456Z,34.00
2018-09-27T16:03:33.155Z,34.00
2018-09-27T16:06:01.843Z,33.80
2018-09-27T16:08:30.649Z,33.70
2018-09-27T16:10:59.312Z,33.70
2018-09-27T16:13:28.009Z,33.80
2018-09-27T16:15:57.484Z,34.00
2018-09-27T16:18:26.071Z,33.90
2018-09-27T16:20:54.752Z,33.90
2018-09-27T16:23:23.595Z,34.00
2018-09-27T16:25:53.121Z,33.80
2018-09-27T16:28:21.793Z,34.00
2018-09-27T16:30:50.518Z,34.10
2018-09-27T16:33:19.446Z,34.20
2018-09-27T16:35:49.348Z,34.30
2018-09-27T16:38:18.257Z,34.70
2018-09-27T16:40:47.285Z,34.90
2018-09-27T16:43:16.595Z,34.80
2018-09-27T16:45:45.678Z,35.00
2018-09-27T16:48:14.705Z,35.10
2018-09-27T16:50:43.458Z,35.40
2018-09-27T16:53:12.393Z,35.50
2018-09-27T16:55:41.276Z,35.70
2018-09-27T16:58:10.118Z,35.70
2018-09-27T17:00:38.837Z,35.90
2018-09-27T17:03:08.155Z,35.80
2018-09-27T17:05:36.843Z,36.00
2018-09-27T17:08:05.458Z,36.20
2018-09-27T17:10:34.869Z,36.30
2018-09-27T17:13:03.609Z,36.40
2018-09-27T17:15:32.206Z,36.70
2018-09-27T17:18:00.823Z,36.60
2018-09-27T17:20:29.472Z,36.90
2018-09-27T17:22:58.150Z,37.00
2018-09-27T17:25:27.118Z,37.20
2018-09-27T17:27:55.722Z,37.30
2018-09-27T17:30:24.550Z,37.50
2018-09-27T17:32:53.284Z,37.60
2018-09-27T17:35:22.599Z,37.90
2018-09-27T17:37:51.286Z,38.00
2018-09-27T17:40:19.909Z,38.00
2018-09-27T17:42:49.375Z,38.20
2018-09-27T17:45:19.386Z,38.30
2018-09-27T17:47:49.180Z,38.30
2018-09-27T17:50:17.824Z,38.60
2018-09-27T17:52:46.657Z,38.70
2018-09-27T17:55:15.240Z,38.90
2018-09-27T17:57:43.848Z,39.00
2018-09-27T18:00:12.428Z,39.30
2018-09-27T18:02:41.671Z,39.30
2018-09-27T18:05:18.983Z,39.30
2018-09-27T18:07:39.060Z,39.70
2018-09-27T18:10:07.711Z,39.90
2018-09-27T18:12:36.438Z,39.90
2018-09-27T18:15:05.240Z,40.20
2018-09-27T18:17:33.973Z,40.40
2018-09-27T18:20:02.590Z,40.30
2018-09-27T18:22:31.283Z,40.90
2018-09-27T18:24:59.933Z,41.10
2018-09-27T18:27:28.469Z,40.90
2018-09-27T18:29:57.088Z,41.00
2018-09-27T18:32:25.689Z,41.00
2018-09-27T18:34:54.331Z,41.30
2018-09-27T18:37:23.061Z,41.50
2018-09-27T18:39:52.269Z,41.70
2018-09-27T18:42:20.833Z,41.80
2018-09-27T18:44:49.573Z,42.00
2018-09-27T18:47:18.189Z,42.10
2018-09-27T18:49:46.771Z,42.20
2018-09-27T18:52:15.361Z,42.40
2018-09-27T18:54:43.929Z,42.40
2018-09-27T18:57:12.527Z,42.50
2018-09-27T18:59:41.183Z,43.30
2018-09-27T19:02:09.899Z,42.90
2018-09-27T19:04:38.568Z,43.10
2018-09-27T19:07:07.338Z,43.40
2018-09-27T19:09:35.909Z,43.50
2018-09-27T19:12:04.544Z,43.60
2018-09-27T19:14:33.150Z,43.90
2018-09-27T19:17:01.839Z,43.90
2018-09-27T19:19:35.548Z,43.90
2018-09-27T19:22:04.168Z,44.10
2018-09-27T19:24:32.742Z,44.20
2018-09-27T19:27:01.356Z,44.50
2018-09-27T19:29:30.046Z,44.60
2018-09-27T19:31:58.789Z,44.70
2018-09-27T19:34:27.395Z,44.80
2018-09-27T19:36:56.051Z,45.00
2018-09-27T19:39:24.695Z,45.20
2018-09-27T19:41:53.292Z,45.40
2018-09-27T19:44:22.528Z,45.60
2018-09-27T19:46:51.300Z,45.50
2018-09-27T19:49:19.925Z,45.80
2018-09-27T19:51:48.687Z,45.90
2018-09-27T19:54:17.324Z,46.20
2018-09-27T19:56:45.906Z,46.40
2018-09-27T19:59:14.477Z,46.60
2018-09-27T20:01:43.760Z,46.70
2018-09-27T20:04:13.092Z,46.80
2018-09-27T20:06:41.652Z,48.50
2018-09-27T20:09:12.680Z,50.00
2018-09-27T20:11:41.463Z,50.50
2018-09-27T20:14:10.762Z,51.40
2018-09-27T20:16:39.950Z,51.70
2018-09-27T20:19:08.919Z,52.40
2018-09-27T20:21:38.099Z,53.10
2018-09-27T20:24:06.758Z,53.60
2018-09-27T20:26:35.352Z,54.60
2018-09-27T20:29:04.582Z,55.10
2018-09-27T20:31:33.313Z,55.50
2018-09-27T20:34:01.952Z,56.50
2018-09-27T20:36:30.491Z,57.00
2018-09-27T20:38:59.061Z,57.50
2018-09-27T20:41:27.684Z,58.10
2018-09-27T20:43:56.509Z,58.90
2018-09-27T20:46:25.098Z,59.40
2018-09-27T20:48:53.824Z,60.10
2018-09-27T20:51:22.431Z,60.60
2018-09-27T20:53:51.126Z,61.20
2018-09-27T20:56:19.716Z,62.00
2018-09-27T20:58:48.343Z,62.80
2018-09-27T21:01:17.126Z,63.40
2018-09-27T21:03:46.126Z,64.00
2018-09-27T21:06:15.208Z,64.70
2018-09-27T21:08:43.783Z,65.50
2018-09-27T21:11:12.694Z,66.10
2018-09-27T21:13:41.332Z,66.90
2018-09-27T21:16:10.208Z,67.70
2018-09-27T21:18:38.980Z,68.80
2018-09-27T21:21:07.598Z,68.90
2018-09-27T21:23:36.340Z,69.50
2018-09-27T21:26:04.951Z,70.10
2018-09-27T21:28:33.651Z,70.90
2018-09-27T21:31:02.653Z,71.80
2018-09-27T21:33:31.234Z,72.30
2018-09-27T21:36:00.129Z,72.90
2018-09-27T21:38:28.844Z,73.40
2018-09-27T21:40:57.463Z,74.20
2018-09-27T21:43:26.142Z,75.00
2018-09-27T21:45:54.701Z,75.30
2018-09-27T21:48:23.444Z,75.90
2018-09-27T21:50:53.030Z,76.50
2018-09-27T21:53:21.986Z,77.70
2018-09-27T21:55:50.550Z,78.00
2018-09-27T21:58:19.193Z,78.80
2018-09-27T22:00:50.932Z,78.70
2018-09-27T22:03:20.801Z,77.40
2018-09-27T22:05:49.382Z,77.30
2018-09-27T22:08:18.048Z,77.40
2018-09-27T22:10:46.888Z,77.10
2018-09-27T22:13:15.780Z,77.40
2018-09-27T22:15:45.070Z,77.50
2018-09-27T22:18:13.957Z,77.70
2018-09-27T22:20:42.630Z,77.80
2018-09-27T22:23:11.528Z,77.80
2018-09-27T22:25:40.581Z,78.30
2018-09-27T22:28:09.343Z,78.00
2018-09-27T22:30:38.380Z,78.00
2018-09-27T22:33:06.922Z,78.30
2018-09-27T22:35:35.531Z,78.30
2018-09-27T22:38:04.056Z,78.40
2018-09-27T22:40:32.638Z,78.60
2018-09-27T22:43:01.220Z,78.80
2018-09-27T22:45:29.774Z,79.00
2018-09-27T22:47:58.440Z,79.10
2018-09-27T22:50:26.988Z,79.20
2018-09-27T22:52:55.807Z,79.40
2018-09-27T22:55:24.405Z,79.60
2018-09-27T22:57:53.017Z,79.90
2018-09-27T23:00:21.839Z,80.00
2018-09-27T23:02:50.482Z,80.30
2018-09-27T23:05:19.107Z,80.70
2018-09-27T23:07:47.627Z,80.90
2018-09-27T23:10:16.183Z,80.90
2018-09-27T23:12:44.766Z,81.10
2018-09-27T23:15:13.366Z,81.30
2018-09-27T23:17:41.939Z,81.60
2018-09-27T23:20:11.383Z,81.90
2018-09-27T23:22:39.989Z,82.40
2018-09-27T23:25:08.949Z,82.60
2018-09-27T23:27:37.674Z,82.90
2018-09-27T23:30:06.438Z,83.00
2018-09-27T23:32:35.320Z,83.30
2018-09-27T23:35:04.080Z,83.60
2018-09-27T23:37:32.705Z,83.80
2018-09-27T23:40:01.299Z,83.80
2018-09-27T23:42:29.886Z,84.10
2018-09-27T23:44:58.542Z,84.00
2018-09-27T23:47:27.156Z,84.20
2018-09-27T23:49:55.778Z,84.10
2018-09-27T23:52:24.381Z,84.30
2018-09-27T23:54:53.078Z,84.30
2018-09-27T23:57:21.623Z,84.40
2018-09-27T23:59:50.216Z,84.40
